Irrigon, OR (97844)

9:37 AM PST on February 27, 2015 (GMT -0800)
East Paterson | Change Station
CLOSE
Current Station
Personal Weather Station
Location: Paterson, WA
Elevation: 384 ft
Nearby Weather Stations

Elev 384 ft 45.94 °N, 119.58 °W | Updated 10 minutes ago

Overcast
Overcast
44.1 °F
Feels Like 41 °F
N
5.3
Wind Variable Wind from NE

Today
High -- | Low -- °F
--% Chance of Precip.
Yesterday
High -- | Low -- °F
Precip. -- in
6:40 AM 5:41 PM
Waxing Gibbous, 70% visible
Pressure 29.74 in
Visibility 10.0 miles
Clouds Mostly Cloudy 7000 ft
Windchill 41 °F
Dew Point 40 °F
Humidity 84%
Rainfall 0.00 in
Snow Depth Not available.
UV 1 out of 12
Pollen 4.00 out of 12
Air Quality Not available.
Flu Activity Not available.
METAR KHRI 271653Z AUTO 04010KT 10SM BKN070 07/03 A2973 RMK AO2 SLP069 T00720028

More Conditions Fewer Conditions

Pressure 29.74 in
Visibility 10.0 miles
Clouds Mostly Cloudy 7000 ft
Windchill 41 °F
Dew Point 40 °F
Humidity 84%
Rainfall 0.00 in
Snow Depth Not available.
UV 1 out of 12
Pollen 4.00 out of 12
Air Quality Not available.
Flu Activity Not available.
METAR KHRI 271653Z AUTO 04010KT 10SM BKN070 07/03 A2973 RMK AO2 SLP069 T00720028

More Conditions Fewer Conditions

10-Day Weather Forecast

Almanac

Astronomy

Feb. 27, 2015 Rise Set
Actual Time
Civil Twilight
Nautical Twilight
Astronomical Twilight
Moon
Length of Visible Light
Length of Day
Tomorrow will be .
, % of the Moon is Illuminated

Today's Extremes

State Highs State Lows

Community

WunderPhotos

Upload Photos

1,800,753 photos uploaded!

WunderBlogs® & News

Nearby

Air Quality

  Air Quality AQ Index Pollutant
Not available.

Snow Depth

Station Depth Elevation

Earthquake Activity

City Distance Mag. Time & Date
Minimum magnitude displayed is 2.5.

Coastal Water Temperatures

Place Temperature

Nearby Weather Stations